Terminal Aerodrome Forecast
Issued by NWS Louisville, KY

Home | Current Version | Previous Version | Text Only | Print | Product List | Glossary On
Versions: 1 2 3 4 5 6 7 8 9 10 11 12 13 14 15 16 17 18 19 20
677
FTUS43 KLMK 092323
TAFBWG
TAF
KBWG 092323Z 1000/1024 29009G16KT 5SM -SHSN OVC025
      TEMPO 1000/1002 2SM -SHSN
     FM100500 29008KT P6SM BKN025
     FM101600 27009KT P6SM BKN035=

USA.gov is the U.S. government's official web portal to all federal, state and local government web resources and services.